Cocalinho, Brazil
Current Conditions -  °F | °C
As of 10:00 AM on Thursday 23 Oct 2014 (Local Time) from SBAN Reporting Station
Light Rain Light Rain  
Wind Chill: 68°   Ceiling: 10000
Heat Index: 68°   Visibility: 4mi
Dew Point: 63°   Wind: 2mph
Humidity: 83%   Direction: 40°NE
Pressure: 30.21"   Gusts: NA
Location:  14.4°S, 51°W
Report Text: SBAN 231200Z 04002KT 6000 -RA SCT030 BKN100 20/17 Q1023
Loading
Personal Weather Stations






























Interactive Weather Map
Tropical Storm Tracking
New forecast layout! Learn more

10-Day Weather Forecast

Advertisements
Track Severe Weather on mobile